Weather at Sonderlandeplatz Grube

Public forecast

Using degrees Celsius for public forecast. Weather courtesy of forecast.io.

Closest aviation weather report (METAR) to Sonderlandeplatz Grube

Closest report is Lübeck Blankensee Airport, 28.5 nm (52.7 km) SSW.

2022/11/26 18:20 (retrieved 21 minutes ago)

EDHL 261820Z VRB04KT 4900 BR OVC004 07/06 Q1028

Closest aviation forecast (TAF) to Sonderlandeplatz Grube

Closest forecast is Hamburg Helmut Schmidt Airport, 52.0 nm (96.3 km) SW.

2022/11/26 18:53 Correction (retrieved 0 seconds ago)

TAF COR EDDH 261741Z 2618/2724 19006KT 3500 BR OVC003 TEMPO 2618/2622 6000 PROB30 TEMPO 2620/2622 OVC005 BECMG 2622/2701 7000 NSC PROB40 TEMPO 2701/2709 4500 BR BECMG 2706/2708 13007KT PROB30 TEMPO 2720/2724 RA